createdAt,value
2018-10-21T00:01:32.984Z,9.50
2018-10-21T00:04:08.139Z,9.50
2018-10-21T00:06:43.371Z,9.37
2018-10-21T00:09:23.425Z,10.23
2018-10-21T00:11:57.873Z,10.30
2018-10-21T00:14:34.710Z,10.57
2018-10-21T00:17:17.931Z,11.60
2018-10-21T00:19:52.267Z,10.00
2018-10-21T00:22:27.328Z,9.57
2018-10-21T00:25:01.841Z,10.20
2018-10-21T00:27:36.832Z,9.07
2018-10-21T00:30:11.318Z,10.80
2018-10-21T00:32:47.858Z,9.30
2018-10-21T00:35:23.070Z,10.30
2018-10-21T00:37:57.608Z,8.80
2018-10-21T00:40:31.871Z,9.30
2018-10-21T00:43:06.897Z,9.30
2018-10-21T00:45:41.268Z,8.87
2018-10-21T00:48:16.239Z,8.80
2018-10-21T00:50:51.208Z,8.37
2018-10-21T00:53:30.261Z,8.73
2018-10-21T00:56:05.004Z,8.37
2018-10-21T00:58:40.286Z,8.53
2018-10-21T01:01:14.581Z,8.40
2018-10-21T01:03:54.913Z,9.00
2018-10-21T01:06:30.218Z,9.30
2018-10-21T01:09:08.553Z,9.00
2018-10-21T01:11:43.449Z,9.73
2018-10-21T01:14:18.578Z,9.40
2018-10-21T01:16:53.360Z,8.50
2018-10-21T01:19:28.395Z,8.50
2018-10-21T01:22:03.435Z,10.03
2018-10-21T01:24:37.980Z,9.10
2018-10-21T01:27:12.609Z,8.50
2018-10-21T01:29:47.567Z,9.73
2018-10-21T01:32:22.088Z,9.67
2018-10-21T01:34:57.391Z,8.47
2018-10-21T01:37:31.640Z,9.77
2018-10-21T01:40:40.232Z,8.30
2018-10-21T01:43:15.757Z,8.80
2018-10-21T01:45:50.358Z,7.97
2018-10-21T01:48:26.494Z,8.63
2018-10-21T01:51:01.615Z,8.50
2018-10-21T01:53:37.035Z,9.80
2018-10-21T01:56:11.548Z,8.90
2018-10-21T01:58:46.604Z,8.93
2018-10-21T02:01:21.100Z,7.43
2018-10-21T02:03:55.970Z,7.73
2018-10-21T02:06:30.880Z,8.40
2018-10-21T02:09:06.813Z,8.60
2018-10-21T02:11:41.696Z,7.40
2018-10-21T02:14:16.165Z,7.67
2018-10-21T02:16:51.119Z,7.77
2018-10-21T02:19:30.067Z,8.87
2018-10-21T02:22:04.493Z,9.17
2018-10-21T02:24:39.037Z,6.67
2018-10-21T02:27:13.804Z,7.67
2018-10-21T02:29:48.164Z,9.30
2018-10-21T02:32:22.565Z,7.90
2018-10-21T02:34:57.454Z,9.03
2018-10-21T02:37:31.965Z,8.40
2018-10-21T02:40:13.432Z,9.20
2018-10-21T02:42:48.667Z,7.27
2018-10-21T02:45:23.175Z,8.07
2018-10-21T02:47:58.066Z,8.20
2018-10-21T02:50:33.460Z,7.43
2018-10-21T02:53:08.320Z,8.27
2018-10-21T02:55:44.047Z,8.13
2018-10-21T02:58:18.468Z,7.00
2018-10-21T03:00:53.677Z,8.50
2018-10-21T03:03:27.990Z,9.63
2018-10-21T03:06:07.864Z,7.90
2018-10-21T03:08:42.992Z,7.63
2018-10-21T03:11:17.432Z,8.20
2018-10-21T03:13:51.983Z,8.07
2018-10-21T03:16:26.947Z,7.67
2018-10-21T03:19:02.005Z,7.93
2018-10-21T03:21:36.860Z,7.10
2018-10-21T03:24:11.357Z,8.40
2018-10-21T03:26:46.299Z,7.80
2018-10-21T03:29:20.740Z,7.53
2018-10-21T03:31:55.380Z,7.30
2018-10-21T03:34:29.761Z,8.00
2018-10-21T03:37:04.597Z,8.00
2018-10-21T03:39:39.560Z,8.27
2018-10-21T03:42:14.508Z,7.53
2018-10-21T03:44:48.948Z,7.33
2018-10-21T03:47:23.347Z,9.00
2018-10-21T03:49:58.171Z,7.60
2018-10-21T03:52:33.322Z,9.13
2018-10-21T03:55:08.452Z,8.10
2018-10-21T03:57:43.315Z,7.90
2018-10-21T04:00:18.291Z,8.57
2018-10-21T04:02:53.088Z,9.77
2018-10-21T04:05:28.176Z,9.13
2018-10-21T04:08:03.632Z,9.40
2018-10-21T04:10:38.183Z,8.93
2018-10-21T04:13:13.404Z,8.23
2018-10-21T04:15:48.380Z,9.47
2018-10-21T04:18:23.296Z,8.23
2018-10-21T04:20:58.297Z,8.77
2018-10-21T04:23:32.815Z,9.30
2018-10-21T04:26:07.436Z,7.80
2018-10-21T04:28:41.948Z,8.27
2018-10-21T04:31:16.925Z,7.90
2018-10-21T04:33:51.462Z,8.23
2018-10-21T04:36:29.678Z,9.30
2018-10-21T04:39:42.573Z,10.73
2018-10-21T04:42:17.703Z,8.13
2018-10-21T04:44:52.135Z,8.87
2018-10-21T04:47:26.715Z,9.33
2018-10-21T04:50:01.996Z,9.33
2018-10-21T04:52:37.315Z,9.37
2018-10-21T04:55:20.655Z,10.30
2018-10-21T04:57:55.140Z,9.43
2018-10-21T05:00:29.935Z,8.67
2018-10-21T05:03:04.533Z,8.37
2018-10-21T05:05:38.947Z,9.53
2018-10-21T05:08:13.996Z,9.53
2018-10-21T05:10:49.093Z,9.37
2018-10-21T05:13:23.472Z,9.30
2018-10-21T05:15:59.049Z,8.87
2018-10-21T05:18:34.186Z,9.10
2018-10-21T05:21:08.832Z,9.90
2018-10-21T05:23:43.650Z,9.90
2018-10-21T05:26:18.198Z,9.10
2018-10-21T05:28:53.275Z,9.00
2018-10-21T05:31:27.779Z,8.37
2018-10-21T05:34:02.563Z,10.07
2018-10-21T05:36:37.579Z,9.93
2018-10-21T05:39:12.599Z,10.10
2018-10-21T05:41:47.407Z,9.70
2018-10-21T05:44:21.724Z,8.80
2018-10-21T05:46:56.149Z,8.80
2018-10-21T05:49:31.583Z,10.00
2018-10-21T05:52:06.229Z,9.80
2018-10-21T05:54:41.928Z,9.77
2018-10-21T05:57:17.419Z,9.27
2018-10-21T05:59:52.479Z,9.60
2018-10-21T06:02:27.699Z,10.10
2018-10-21T06:05:02.095Z,9.33
2018-10-21T06:07:37.243Z,9.00
2018-10-21T06:10:12.124Z,10.17
2018-10-21T06:12:46.543Z,8.80
2018-10-21T06:15:21.652Z,10.17
2018-10-21T06:17:56.673Z,8.80
2018-10-21T06:20:48.615Z,8.93
2018-10-21T06:23:23.002Z,8.10
2018-10-21T06:26:00.500Z,7.30
2018-10-21T06:28:34.879Z,7.67
2018-10-21T06:31:09.286Z,7.63
2018-10-21T06:33:44.259Z,7.10
2018-10-21T06:36:18.586Z,8.23
2018-10-21T06:38:53.566Z,8.37
2018-10-21T06:41:28.519Z,8.60
2018-10-21T06:44:03.072Z,8.90
2018-10-21T06:46:38.088Z,7.37
2018-10-21T06:49:12.909Z,8.17
2018-10-21T06:51:48.215Z,8.37
2018-10-21T06:54:23.551Z,8.40
2018-10-21T06:56:58.960Z,8.80
2018-10-21T06:59:33.859Z,8.43
2018-10-21T07:02:08.712Z,9.13
2018-10-21T07:04:43.155Z,8.70
2018-10-21T07:07:17.831Z,10.00
2018-10-21T07:09:52.251Z,7.93
2018-10-21T07:12:26.788Z,9.40
2018-10-21T07:15:02.052Z,9.90
2018-10-21T07:17:37.187Z,8.90
2018-10-21T07:20:12.284Z,10.00
2018-10-21T07:22:46.685Z,10.13
2018-10-21T07:25:21.042Z,9.53
2018-10-21T07:27:55.973Z,10.27
2018-10-21T07:30:36.449Z,9.67
2018-10-21T07:33:11.419Z,10.30
2018-10-21T07:35:45.644Z,11.40
2018-10-21T07:38:20.512Z,8.80
2018-10-21T07:40:55.828Z,10.30
2018-10-21T07:43:30.293Z,10.57
2018-10-21T07:46:05.674Z,11.23
2018-10-21T07:48:40.772Z,10.77
2018-10-21T07:51:15.074Z,11.50
2018-10-21T07:53:50.501Z,12.00
2018-10-21T07:56:25.909Z,12.40
2018-10-21T07:59:00.644Z,11.67
2018-10-21T08:01:35.576Z,12.10
2018-10-21T08:04:10.573Z,11.40
2018-10-21T08:08:58.943Z,11.43
2018-10-21T08:11:33.606Z,12.30
2018-10-21T08:14:09.170Z,11.93
2018-10-21T08:16:44.203Z,9.97
2018-10-21T08:19:19.520Z,11.60
2018-10-21T08:21:53.931Z,10.10
2018-10-21T08:24:28.514Z,11.00
2018-10-21T08:27:03.032Z,11.20
2018-10-21T08:29:38.115Z,12.07
2018-10-21T08:32:12.440Z,11.23
2018-10-21T08:34:47.326Z,10.57
2018-10-21T08:37:29.548Z,11.00
2018-10-21T08:40:04.706Z,10.27
2018-10-21T08:42:39.247Z,10.80
2018-10-21T08:45:29.588Z,10.40
2018-10-21T08:48:03.929Z,10.50
2018-10-21T08:50:38.260Z,11.03
2018-10-21T08:53:13.246Z,10.90
2018-10-21T08:55:48.486Z,10.33
2018-10-21T08:58:23.693Z,9.63
2018-10-21T09:00:58.786Z,10.20
2018-10-21T09:03:33.293Z,9.83
2018-10-21T09:06:16.684Z,11.20
2018-10-21T09:08:51.312Z,10.67
2018-10-21T09:11:26.267Z,11.27
2018-10-21T09:14:00.732Z,10.80
2018-10-21T09:16:36.351Z,10.00
2018-10-21T09:19:11.763Z,10.80
2018-10-21T09:21:46.134Z,10.80
2018-10-21T09:24:20.771Z,11.73
2018-10-21T09:27:00.790Z,11.17
2018-10-21T09:29:37.143Z,11.43
2018-10-21T09:32:16.165Z,9.93
2018-10-21T09:34:50.676Z,9.50
2018-10-21T09:37:25.733Z,11.10
2018-10-21T09:40:03.320Z,9.63
2018-10-21T09:42:46.658Z,10.10
2018-10-21T09:45:22.660Z,11.20
2018-10-21T09:47:58.219Z,10.30
2018-10-21T09:50:32.915Z,9.80
2018-10-21T09:53:07.255Z,10.57
2018-10-21T09:55:42.439Z,10.03
2018-10-21T09:58:19.527Z,10.23
2018-10-21T10:01:00.016Z,9.63
2018-10-21T10:03:34.656Z,10.90
2018-10-21T10:06:19.704Z,9.33
2018-10-21T10:08:54.157Z,9.47
2018-10-21T10:11:28.584Z,8.63
2018-10-21T10:14:03.556Z,7.97
2018-10-21T10:16:39.106Z,8.87
2018-10-21T10:19:14.275Z,9.97
2018-10-21T10:21:48.677Z,8.13
2018-10-21T10:24:23.512Z,8.63
2018-10-21T10:26:57.840Z,8.60
2018-10-21T10:29:32.388Z,8.53
2018-10-21T10:32:06.833Z,7.97
2018-10-21T10:34:41.119Z,8.73
2018-10-21T10:37:16.274Z,8.07
2018-10-21T10:39:50.512Z,8.53
2018-10-21T10:42:25.099Z,8.90
2018-10-21T10:45:00.244Z,8.57
2018-10-21T10:47:42.136Z,7.90
2018-10-21T10:50:17.426Z,7.00
2018-10-21T10:52:52.094Z,6.97
2018-10-21T10:55:34.527Z,8.20
2018-10-21T10:58:10.086Z,6.90
2018-10-21T11:00:46.983Z,7.13
2018-10-21T11:03:21.373Z,7.10
2018-10-21T11:05:56.532Z,6.87
2018-10-21T11:08:32.216Z,7.17
2018-10-21T11:11:07.424Z,6.67
2018-10-21T11:16:29.534Z,6.20
2018-10-21T11:19:05.332Z,5.37
2018-10-21T11:21:42.400Z,5.20
2018-10-21T11:24:17.711Z,3.30
2018-10-21T11:26:53.039Z,3.70
2018-10-21T11:29:28.759Z,4.70
2018-10-21T11:32:04.259Z,5.40
2018-10-21T11:34:39.494Z,4.50
2018-10-21T11:37:15.363Z,4.30
2018-10-21T11:39:51.055Z,4.70
2018-10-21T11:42:25.445Z,4.20
2018-10-21T11:45:00.436Z,4.60
2018-10-21T11:47:36.239Z,3.53
2018-10-21T11:50:12.012Z,3.10
2018-10-21T11:52:47.037Z,3.83
2018-10-21T11:55:25.521Z,3.23
2018-10-21T11:58:00.326Z,4.40
2018-10-21T12:00:35.184Z,4.07
2018-10-21T12:03:11.535Z,2.80
2018-10-21T12:05:47.116Z,2.87
2018-10-21T12:08:22.544Z,3.77
2018-10-21T12:14:25.867Z,2.97
2018-10-21T12:17:28.914Z,3.40
2018-10-21T12:20:04.252Z,3.00
2018-10-21T12:22:38.800Z,4.00
2018-10-21T12:25:13.407Z,3.67
2018-10-21T12:27:47.765Z,3.73
2018-10-21T12:30:22.964Z,3.00
2018-10-21T12:32:58.036Z,3.33
2018-10-21T12:35:33.008Z,4.27
2018-10-21T12:38:07.972Z,4.50
2018-10-21T12:50:10.909Z,4.10
2018-10-21T12:52:46.163Z,3.20
2018-10-21T12:55:21.231Z,3.60
2018-10-21T12:57:55.565Z,3.30
2018-10-21T13:00:30.447Z,4.10
2018-10-21T13:03:04.912Z,3.90
2018-10-21T13:05:39.901Z,3.27
2018-10-21T13:08:19.698Z,4.27
2018-10-21T13:10:54.099Z,4.13
2018-10-21T13:13:29.170Z,4.30
2018-10-21T13:16:04.157Z,3.50
2018-10-21T13:18:40.117Z,4.03
2018-10-21T13:21:15.446Z,3.77
2018-10-21T13:23:50.917Z,4.00
2018-10-21T13:26:25.591Z,3.53
2018-10-21T13:29:00.247Z,4.07
2018-10-21T13:31:35.456Z,4.20
2018-10-21T13:34:10.621Z,4.00
2018-10-21T13:36:45.563Z,3.53
2018-10-21T13:39:20.840Z,3.40
2018-10-21T13:41:55.345Z,3.53
2018-10-21T13:44:30.357Z,3.57
2018-10-21T13:47:05.477Z,3.67
2018-10-21T13:49:43.992Z,3.43
2018-10-21T13:52:19.083Z,3.40
2018-10-21T13:54:54.789Z,4.50
2018-10-21T13:57:31.511Z,5.10
2018-10-21T14:00:07.035Z,3.30
2018-10-21T14:02:41.657Z,3.53
2018-10-21T14:05:17.179Z,3.80
2018-10-21T14:07:52.359Z,3.20
2018-10-21T14:10:27.196Z,3.20
2018-10-21T14:13:03.318Z,3.20
2018-10-21T14:15:39.550Z,3.73
2018-10-21T14:18:14.889Z,2.70
2018-10-21T14:20:49.795Z,3.07
2018-10-21T14:23:25.586Z,4.17
2018-10-21T14:26:00.611Z,3.80
2018-10-21T14:28:36.142Z,3.50
2018-10-21T14:31:11.632Z,3.30
2018-10-21T14:33:46.560Z,3.63
2018-10-21T14:36:23.142Z,3.33
2018-10-21T14:38:58.104Z,4.10
2018-10-21T14:41:32.918Z,3.53
2018-10-21T14:44:07.812Z,3.50
2018-10-21T14:46:43.875Z,3.20
2018-10-21T14:49:19.207Z,3.60
2018-10-21T14:51:54.367Z,3.43
2018-10-21T14:54:29.591Z,3.80
2018-10-21T14:57:04.791Z,3.60
2018-10-21T14:59:39.073Z,3.47
2018-10-21T15:02:13.767Z,2.97
2018-10-21T15:04:48.381Z,4.10
2018-10-21T15:07:23.460Z,3.80
2018-10-21T15:09:57.862Z,3.97
2018-10-21T15:12:33.156Z,5.40
2018-10-21T15:15:09.568Z,4.80
2018-10-21T15:17:45.931Z,3.80
2018-10-21T15:20:21.319Z,4.00
2018-10-21T15:23:04.470Z,5.73
2018-10-21T15:25:38.856Z,4.67
2018-10-21T15:28:14.050Z,4.73
2018-10-21T15:30:48.845Z,4.73
2018-10-21T15:33:23.248Z,3.03
2018-10-21T15:35:58.165Z,3.23
2018-10-21T15:38:33.112Z,3.37
2018-10-21T15:41:08.593Z,3.63
2018-10-21T15:43:42.972Z,4.23
2018-10-21T15:46:18.213Z,3.93
2018-10-21T15:48:53.206Z,4.20
2018-10-21T15:51:28.216Z,3.77
2018-10-21T15:54:03.534Z,5.13
2018-10-21T15:56:37.983Z,4.23
2018-10-21T15:59:12.804Z,4.37
2018-10-21T16:01:47.149Z,3.63
2018-10-21T16:04:21.808Z,4.90
2018-10-21T16:06:57.575Z,3.90
2018-10-21T16:09:32.492Z,3.70
2018-10-21T16:12:07.035Z,5.00
2018-10-21T16:14:42.364Z,5.10
2018-10-21T16:17:19.324Z,3.90
2018-10-21T16:19:54.424Z,3.97
2018-10-21T16:22:29.500Z,6.50
2018-10-21T16:25:04.932Z,4.17
2018-10-21T16:27:39.299Z,4.07
2018-10-21T16:30:15.942Z,4.67
2018-10-21T16:32:50.523Z,4.00
2018-10-21T16:35:24.864Z,4.47
2018-10-21T16:38:00.042Z,4.63
2018-10-21T16:40:34.573Z,4.70
2018-10-21T16:43:08.876Z,4.97
2018-10-21T16:45:44.096Z,3.77
2018-10-21T16:48:20.068Z,3.90
2018-10-21T16:50:55.346Z,4.40
2018-10-21T16:53:29.773Z,4.87
2018-10-21T16:56:04.737Z,5.10
2018-10-21T16:58:42.624Z,4.93
2018-10-21T17:01:18.185Z,4.60
2018-10-21T17:03:52.733Z,4.20
2018-10-21T17:09:23.800Z,4.10
2018-10-21T17:11:58.128Z,5.00
2018-10-21T17:14:38.740Z,4.20
2018-10-21T17:17:18.920Z,4.37
2018-10-21T17:19:54.178Z,4.10
2018-10-21T17:22:28.635Z,4.90
2018-10-21T17:25:05.144Z,4.60
2018-10-21T17:27:39.504Z,4.60
2018-10-21T17:30:17.250Z,4.63
2018-10-21T17:32:53.638Z,3.97
2018-10-21T17:35:28.239Z,3.73
2018-10-21T17:38:04.459Z,4.77
2018-10-21T17:40:39.339Z,3.30
2018-10-21T17:43:13.740Z,4.50
2018-10-21T17:45:58.618Z,4.43
2018-10-21T17:48:35.256Z,5.07
2018-10-21T17:51:12.100Z,5.07
2018-10-21T17:53:54.990Z,5.93
2018-10-21T17:56:29.587Z,4.30
2018-10-21T17:59:04.261Z,4.60
2018-10-21T18:01:40.582Z,5.37
2018-10-21T18:04:15.213Z,4.90
2018-10-21T18:06:52.803Z,4.20
2018-10-21T18:09:30.033Z,4.77
2018-10-21T18:12:04.572Z,5.30
2018-10-21T18:14:41.435Z,4.83
2018-10-21T18:17:21.028Z,4.93
2018-10-21T18:19:56.500Z,4.70
2018-10-21T18:22:30.824Z,4.93
2018-10-21T18:25:08.000Z,5.00
2018-10-21T18:27:44.287Z,5.97
2018-10-21T18:33:01.927Z,4.87
2018-10-21T18:35:36.367Z,5.03
2018-10-21T18:38:12.712Z,5.33
2018-10-21T18:40:47.713Z,5.00
2018-10-21T18:43:22.255Z,5.07
2018-10-21T18:45:59.843Z,5.03
2018-10-21T18:48:36.784Z,5.90
2018-10-21T18:51:11.498Z,6.17
2018-10-21T18:53:56.527Z,5.60
2018-10-21T18:56:31.605Z,6.50
2018-10-21T19:04:35.891Z,5.27
2018-10-21T19:07:12.529Z,6.80
2018-10-21T19:09:49.140Z,5.97
2018-10-21T19:12:23.679Z,6.07
2018-10-21T19:15:01.138Z,7.10
2018-10-21T19:17:38.363Z,5.33
2018-10-21T19:20:16.880Z,5.70
2018-10-21T19:22:51.490Z,6.30
2018-10-21T19:25:28.143Z,5.90
2018-10-21T19:28:02.995Z,5.90
2018-10-21T19:30:38.804Z,5.37
2018-10-21T19:33:14.017Z,7.13
2018-10-21T19:35:48.924Z,6.27
2018-10-21T19:38:24.876Z,5.50
2018-10-21T19:41:00.538Z,5.33
2018-10-21T19:43:35.015Z,6.80
2018-10-21T19:46:11.456Z,6.63
2018-10-21T19:48:46.995Z,6.40
2018-10-21T19:51:21.488Z,7.40
2018-10-21T19:53:57.874Z,6.90
2018-10-21T19:56:33.279Z,6.03
2018-10-21T19:59:07.679Z,6.50
2018-10-21T20:01:42.885Z,6.20
2018-10-21T20:04:17.378Z,6.20
2018-10-21T20:06:52.348Z,7.40
2018-10-21T20:09:27.660Z,8.97
2018-10-21T20:12:02.189Z,6.40
2018-10-21T20:14:40.228Z,6.33
2018-10-21T20:17:14.748Z,7.40
2018-10-21T20:19:49.744Z,6.57
2018-10-21T20:22:24.255Z,5.30
2018-10-21T20:24:59.229Z,6.33
2018-10-21T20:27:34.429Z,7.07
2018-10-21T20:30:10.449Z,6.93
2018-10-21T20:32:44.834Z,7.70
2018-10-21T20:35:20.219Z,7.73
2018-10-21T20:37:55.575Z,6.70
2018-10-21T20:40:30.130Z,7.80
2018-10-21T20:43:04.978Z,7.20
2018-10-21T20:45:40.215Z,6.83
2018-10-21T20:48:20.898Z,7.67
2018-10-21T20:50:55.248Z,7.20
2018-10-21T20:53:30.341Z,8.80
2018-10-21T20:56:05.447Z,8.43
2018-10-21T20:58:40.483Z,7.90
2018-10-21T21:01:14.824Z,7.57
2018-10-21T21:03:50.284Z,7.10
2018-10-21T21:06:24.740Z,7.70
2018-10-21T21:09:00.497Z,7.63
2018-10-21T21:11:36.048Z,7.10
2018-10-21T21:14:10.636Z,7.67
2018-10-21T21:16:45.603Z,8.13
2018-10-21T21:19:20.560Z,8.50
2018-10-21T21:21:55.119Z,8.00
2018-10-21T21:24:30.324Z,6.97
2018-10-21T21:27:04.957Z,8.40
2018-10-21T21:29:45.983Z,7.40
2018-10-21T21:32:20.448Z,9.00
2018-10-21T21:34:54.960Z,8.87
2018-10-21T21:37:30.152Z,10.43
2018-10-21T21:40:06.171Z,7.53
2018-10-21T21:42:40.640Z,7.40
2018-10-21T21:45:15.520Z,6.87
2018-10-21T21:47:49.972Z,7.80
2018-10-21T21:50:25.022Z,10.77
2018-10-21T21:52:59.448Z,8.37
2018-10-21T21:55:34.547Z,7.60
2018-10-21T21:58:09.659Z,8.93
2018-10-21T22:00:44.165Z,6.90
2018-10-21T22:03:19.270Z,6.93
2018-10-21T22:05:53.692Z,8.53
2018-10-21T22:08:29.380Z,7.80
2018-10-21T22:11:04.445Z,7.40
2018-10-21T22:13:38.876Z,7.30
2018-10-21T22:16:14.110Z,7.70
2018-10-21T22:18:49.204Z,8.23
2018-10-21T22:21:23.769Z,7.73
2018-10-21T22:23:58.725Z,9.20
2018-10-21T22:26:33.719Z,9.03
2018-10-21T22:29:08.283Z,7.77
2018-10-21T22:31:43.209Z,8.13
2018-10-21T22:34:17.827Z,8.20
2018-10-21T22:36:52.720Z,7.60
2018-10-21T22:39:27.895Z,8.43
2018-10-21T22:42:02.426Z,8.33
2018-10-21T22:44:37.606Z,7.60
2018-10-21T22:47:12.116Z,8.63
2018-10-21T22:49:47.079Z,8.07
2018-10-21T22:52:21.583Z,8.40
2018-10-21T22:54:56.436Z,8.13
2018-10-21T22:57:31.600Z,9.03
2018-10-21T23:00:07.732Z,7.67
2018-10-21T23:02:42.764Z,8.00
2018-10-21T23:05:17.792Z,8.37
2018-10-21T23:07:52.635Z,8.53
2018-10-21T23:10:27.655Z,8.87
2018-10-21T23:13:01.942Z,9.00
2018-10-21T23:15:36.932Z,7.50
2018-10-21T23:18:12.439Z,8.37
2018-10-21T23:20:46.736Z,8.67
2018-10-21T23:23:21.279Z,9.70
2018-10-21T23:25:56.137Z,7.53
2018-10-21T23:28:30.680Z,7.37
2018-10-21T23:31:06.044Z,8.20
2018-10-21T23:33:40.500Z,6.97
2018-10-21T23:36:15.014Z,7.90
2018-10-21T23:38:50.175Z,7.33
2018-10-21T23:41:25.164Z,8.50
2018-10-21T23:43:59.836Z,7.97
2018-10-21T23:46:34.875Z,8.70
2018-10-21T23:49:10.050Z,8.10
2018-10-21T23:51:44.504Z,7.97
2018-10-21T23:54:19.775Z,7.53
2018-10-21T23:56:55.660Z,7.93
2018-10-21T23:59:30.664Z,6.50
